sensor_id;sensor_type;location;lat;lon;timestamp;P1;durP1;ratioP1;P2;durP2;ratioP2
10343;SDS011;5217;43.960;10.954;2023-02-28T00:01:31;7.50;;;6.80;;
10343;SDS011;5217;43.960;10.954;2023-02-28T00:04:00;7.50;;;6.80;;
10343;SDS011;5217;43.960;10.954;2023-02-28T00:06:29;7.37;;;6.67;;
10343;SDS011;5217;43.960;10.954;2023-02-28T00:08:58;7.90;;;7.20;;
10343;SDS011;5217;43.960;10.954;2023-02-28T00:11:27;8.30;;;7.60;;
10343;SDS011;5217;43.960;10.954;2023-02-28T00:13:56;7.97;;;7.27;;
10343;SDS011;5217;43.960;10.954;2023-02-28T00:16:24;8.70;;;7.90;;
10343;SDS011;5217;43.960;10.954;2023-02-28T00:18:52;8.67;;;7.73;;
10343;SDS011;5217;43.960;10.954;2023-02-28T00:21:21;9.20;;;8.33;;
10343;SDS011;5217;43.960;10.954;2023-02-28T00:23:49;9.30;;;8.50;;
10343;SDS011;5217;43.960;10.954;2023-02-28T00:26:19;9.30;;;8.53;;
10343;SDS011;5217;43.960;10.954;2023-02-28T00:28:47;9.67;;;8.77;;
10343;SDS011;5217;43.960;10.954;2023-02-28T00:31:15;9.77;;;8.87;;
10343;SDS011;5217;43.960;10.954;2023-02-28T00:33:44;9.60;;;8.80;;
10343;SDS011;5217;43.960;10.954;2023-02-28T00:36:12;10.20;;;9.23;;
10343;SDS011;5217;43.960;10.954;2023-02-28T00:38:41;9.60;;;8.80;;
10343;SDS011;5217;43.960;10.954;2023-02-28T00:41:09;10.30;;;9.40;;
10343;SDS011;5217;43.960;10.954;2023-02-28T00:43:39;9.50;;;8.70;;
10343;SDS011;5217;43.960;10.954;2023-02-28T00:46:08;9.23;;;8.33;;
10343;SDS011;5217;43.960;10.954;2023-02-28T00:48:36;9.20;;;8.40;;
10343;SDS011;5217;43.960;10.954;2023-02-28T00:51:05;9.13;;;8.33;;
10343;SDS011;5217;43.960;10.954;2023-02-28T00:53:33;10.03;;;9.13;;
10343;SDS011;5217;43.960;10.954;2023-02-28T00:56:02;8.90;;;8.20;;
10343;SDS011;5217;43.960;10.954;2023-02-28T00:58:30;9.30;;;8.50;;
10343;SDS011;5217;43.960;10.954;2023-02-28T01:01:00;9.07;;;8.27;;
10343;SDS011;5217;43.960;10.954;2023-02-28T01:03:29;9.60;;;8.80;;
10343;SDS011;5217;43.960;10.954;2023-02-28T01:05:57;9.13;;;8.33;;
10343;SDS011;5217;43.960;10.954;2023-02-28T01:08:25;9.40;;;8.60;;
10343;SDS011;5217;43.960;10.954;2023-02-28T01:10:54;9.63;;;8.77;;
10343;SDS011;5217;43.960;10.954;2023-02-28T01:13:23;10.20;;;9.37;;
10343;SDS011;5217;43.960;10.954;2023-02-28T01:15:52;10.20;;;9.40;;
10343;SDS011;5217;43.960;10.954;2023-02-28T01:18:24;10.20;;;9.20;;
10343;SDS011;5217;43.960;10.954;2023-02-28T01:20:53;10.50;;;9.50;;
10343;SDS011;5217;43.960;10.954;2023-02-28T01:23:21;10.20;;;9.30;;
10343;SDS011;5217;43.960;10.954;2023-02-28T01:25:50;10.63;;;9.63;;
10343;SDS011;5217;43.960;10.954;2023-02-28T01:28:19;10.03;;;9.20;;
10343;SDS011;5217;43.960;10.954;2023-02-28T01:30:48;10.17;;;9.33;;
10343;SDS011;5217;43.960;10.954;2023-02-28T01:33:17;10.17;;;9.27;;
10343;SDS011;5217;43.960;10.954;2023-02-28T01:35:47;10.13;;;9.27;;
10343;SDS011;5217;43.960;10.954;2023-02-28T01:38:16;11.10;;;10.10;;
10343;SDS011;5217;43.960;10.954;2023-02-28T01:40:49;10.50;;;9.60;;
10343;SDS011;5217;43.960;10.954;2023-02-28T01:43:20;10.23;;;9.23;;
10343;SDS011;5217;43.960;10.954;2023-02-28T01:45:50;11.53;;;10.53;;
10343;SDS011;5217;43.960;10.954;2023-02-28T01:48:20;11.20;;;10.10;;
10343;SDS011;5217;43.960;10.954;2023-02-28T01:50:53;11.03;;;10.13;;
10343;SDS011;5217;43.960;10.954;2023-02-28T01:53:26;11.60;;;10.50;;
10343;SDS011;5217;43.960;10.954;2023-02-28T01:55:58;10.80;;;9.90;;
10343;SDS011;5217;43.960;10.954;2023-02-28T01:58:27;10.97;;;9.97;;
10343;SDS011;5217;43.960;10.954;2023-02-28T02:00:55;10.70;;;9.80;;
10343;SDS011;5217;43.960;10.954;2023-02-28T02:03:24;11.07;;;10.17;;
10343;SDS011;5217;43.960;10.954;2023-02-28T02:05:54;11.40;;;10.30;;
10343;SDS011;5217;43.960;10.954;2023-02-28T02:08:24;10.63;;;9.63;;
10343;SDS011;5217;43.960;10.954;2023-02-28T02:10:55;10.47;;;9.57;;
10343;SDS011;5217;43.960;10.954;2023-02-28T02:13:33;10.83;;;9.93;;
10343;SDS011;5217;43.960;10.954;2023-02-28T02:16:11;10.43;;;9.53;;
10343;SDS011;5217;43.960;10.954;2023-02-28T02:18:50;10.07;;;9.27;;
10343;SDS011;5217;43.960;10.954;2023-02-28T02:27:57;9.03;;;8.33;;
10343;SDS011;5217;43.960;10.954;2023-02-28T02:37:02;8.10;;;7.40;;
10343;SDS011;5217;43.960;10.954;2023-02-28T02:39:41;7.87;;;7.27;;
10343;SDS011;5217;43.960;10.954;2023-02-28T02:42:16;7.60;;;7.00;;
10343;SDS011;5217;43.960;10.954;2023-02-28T02:44:50;7.57;;;6.87;;
10343;SDS011;5217;43.960;10.954;2023-02-28T02:47:24;8.00;;;7.20;;
10343;SDS011;5217;43.960;10.954;2023-02-28T02:49:57;7.60;;;6.57;;
10343;SDS011;5217;43.960;10.954;2023-02-28T02:52:30;7.17;;;6.57;;
10343;SDS011;5217;43.960;10.954;2023-02-28T02:55:03;6.87;;;6.27;;
10343;SDS011;5217;43.960;10.954;2023-02-28T02:57:34;6.90;;;6.40;;
10343;SDS011;5217;43.960;10.954;2023-02-28T03:00:07;6.90;;;6.40;;
10343;SDS011;5217;43.960;10.954;2023-02-28T03:02:38;6.47;;;5.97;;
10343;SDS011;5217;43.960;10.954;2023-02-28T03:05:12;6.20;;;5.70;;
10343;SDS011;5217;43.960;10.954;2023-02-28T03:07:46;6.53;;;6.03;;
10343;SDS011;5217;43.960;10.954;2023-02-28T03:10:29;6.17;;;5.60;;
10343;SDS011;5217;43.960;10.954;2023-02-28T03:16:16;5.60;;;5.10;;
10343;SDS011;5217;43.960;10.954;2023-02-28T03:18:58;6.23;;;5.70;;
10343;SDS011;5217;43.960;10.954;2023-02-28T03:21:40;5.90;;;5.40;;
10343;SDS011;5217;43.960;10.954;2023-02-28T03:24:14;6.37;;;5.77;;
10343;SDS011;5217;43.960;10.954;2023-02-28T03:26:50;6.07;;;5.47;;
10343;SDS011;5217;43.960;10.954;2023-02-28T03:29:24;6.20;;;5.70;;
10343;SDS011;5217;43.960;10.954;2023-02-28T03:32:03;5.93;;;5.43;;
10343;SDS011;5217;43.960;10.954;2023-02-28T03:34:41;5.70;;;5.27;;
10343;SDS011;5217;43.960;10.954;2023-02-28T03:37:18;6.10;;;5.60;;
10343;SDS011;5217;43.960;10.954;2023-02-28T03:39:51;5.20;;;4.80;;
10343;SDS011;5217;43.960;10.954;2023-02-28T03:42:25;5.33;;;4.83;;
10343;SDS011;5217;43.960;10.954;2023-02-28T03:44:57;5.57;;;5.07;;
10343;SDS011;5217;43.960;10.954;2023-02-28T03:47:29;5.63;;;5.13;;
10343;SDS011;5217;43.960;10.954;2023-02-28T03:50:04;5.80;;;5.30;;
10343;SDS011;5217;43.960;10.954;2023-02-28T03:52:38;5.80;;;5.30;;
10343;SDS011;5217;43.960;10.954;2023-02-28T03:55:13;6.00;;;5.50;;
10343;SDS011;5217;43.960;10.954;2023-02-28T03:57:44;5.13;;;4.67;;
10343;SDS011;5217;43.960;10.954;2023-02-28T04:00:25;4.80;;;4.40;;
10343;SDS011;5217;43.960;10.954;2023-02-28T04:02:56;5.33;;;4.83;;
10343;SDS011;5217;43.960;10.954;2023-02-28T04:05:30;5.07;;;4.57;;
10343;SDS011;5217;43.960;10.954;2023-02-28T04:08:04;4.60;;;4.27;;
10343;SDS011;5217;43.960;10.954;2023-02-28T04:10:34;4.43;;;4.07;;
10343;SDS011;5217;43.960;10.954;2023-02-28T04:13:05;4.63;;;4.23;;
10343;SDS011;5217;43.960;10.954;2023-02-28T04:15:33;4.07;;;3.77;;
10343;SDS011;5217;43.960;10.954;2023-02-28T04:18:03;5.20;;;4.63;;
10343;SDS011;5217;43.960;10.954;2023-02-28T04:20:32;4.90;;;4.50;;
10343;SDS011;5217;43.960;10.954;2023-02-28T04:23:01;4.40;;;4.00;;
10343;SDS011;5217;43.960;10.954;2023-02-28T04:25:31;5.33;;;4.87;;
10343;SDS011;5217;43.960;10.954;2023-02-28T04:27:59;4.50;;;4.10;;
10343;SDS011;5217;43.960;10.954;2023-02-28T04:30:28;4.67;;;4.30;;
10343;SDS011;5217;43.960;10.954;2023-02-28T04:32:59;4.53;;;4.13;;
10343;SDS011;5217;43.960;10.954;2023-02-28T04:35:28;4.60;;;4.20;;
10343;SDS011;5217;43.960;10.954;2023-02-28T04:37:57;4.30;;;3.93;;
10343;SDS011;5217;43.960;10.954;2023-02-28T04:40:25;4.40;;;4.00;;
10343;SDS011;5217;43.960;10.954;2023-02-28T04:42:55;4.27;;;3.97;;
10343;SDS011;5217;43.960;10.954;2023-02-28T04:45:24;4.00;;;3.70;;
10343;SDS011;5217;43.960;10.954;2023-02-28T04:47:56;3.77;;;3.47;;
10343;SDS011;5217;43.960;10.954;2023-02-28T04:50:25;4.13;;;3.80;;
10343;SDS011;5217;43.960;10.954;2023-02-28T04:52:53;4.40;;;4.00;;
10343;SDS011;5217;43.960;10.954;2023-02-28T04:55:22;4.30;;;3.80;;
10343;SDS011;5217;43.960;10.954;2023-02-28T04:57:50;4.27;;;3.87;;
10343;SDS011;5217;43.960;10.954;2023-02-28T05:00:21;4.23;;;3.90;;
10343;SDS011;5217;43.960;10.954;2023-02-28T05:02:50;3.80;;;3.50;;
10343;SDS011;5217;43.960;10.954;2023-02-28T05:05:18;3.80;;;3.50;;
10343;SDS011;5217;43.960;10.954;2023-02-28T05:07:47;4.13;;;3.83;;
10343;SDS011;5217;43.960;10.954;2023-02-28T05:10:15;3.70;;;3.40;;
10343;SDS011;5217;43.960;10.954;2023-02-28T05:12:44;3.80;;;3.50;;
10343;SDS011;5217;43.960;10.954;2023-02-28T05:15:15;3.87;;;3.57;;
10343;SDS011;5217;43.960;10.954;2023-02-28T05:17:45;3.70;;;3.40;;
10343;SDS011;5217;43.960;10.954;2023-02-28T05:20:13;3.70;;;3.40;;
10343;SDS011;5217;43.960;10.954;2023-02-28T05:22:42;3.67;;;3.40;;
10343;SDS011;5217;43.960;10.954;2023-02-28T05:25:11;3.70;;;3.40;;
10343;SDS011;5217;43.960;10.954;2023-02-28T05:27:43;3.93;;;3.63;;
10343;SDS011;5217;43.960;10.954;2023-02-28T05:30:12;4.00;;;3.70;;
10343;SDS011;5217;43.960;10.954;2023-02-28T05:32:41;3.77;;;3.47;;
10343;SDS011;5217;43.960;10.954;2023-02-28T05:35:11;3.90;;;3.60;;
10343;SDS011;5217;43.960;10.954;2023-02-28T05:37:40;4.00;;;3.70;;
10343;SDS011;5217;43.960;10.954;2023-02-28T05:40:08;3.60;;;3.30;;
10343;SDS011;5217;43.960;10.954;2023-02-28T05:42:37;4.47;;;3.40;;
10343;SDS011;5217;43.960;10.954;2023-02-28T05:45:06;3.17;;;2.90;;
10343;SDS011;5217;43.960;10.954;2023-02-28T05:47:35;3.60;;;3.30;;
10343;SDS011;5217;43.960;10.954;2023-02-28T05:50:04;3.10;;;2.90;;
10343;SDS011;5217;43.960;10.954;2023-02-28T05:52:34;3.50;;;3.23;;
10343;SDS011;5217;43.960;10.954;2023-02-28T05:55:03;3.47;;;3.20;;
10343;SDS011;5217;43.960;10.954;2023-02-28T05:57:33;3.80;;;3.50;;
10343;SDS011;5217;43.960;10.954;2023-02-28T06:00:02;3.30;;;3.10;;
10343;SDS011;5217;43.960;10.954;2023-02-28T06:02:31;3.50;;;3.03;;
10343;SDS011;5217;43.960;10.954;2023-02-28T06:04:59;3.37;;;3.07;;
10343;SDS011;5217;43.960;10.954;2023-02-28T06:07:28;3.30;;;3.00;;
10343;SDS011;5217;43.960;10.954;2023-02-28T06:09:58;3.30;;;3.00;;
10343;SDS011;5217;43.960;10.954;2023-02-28T06:12:27;3.13;;;2.93;;
10343;SDS011;5217;43.960;10.954;2023-02-28T06:14:56;3.60;;;3.30;;
10343;SDS011;5217;43.960;10.954;2023-02-28T06:17:24;3.20;;;3.00;;
10343;SDS011;5217;43.960;10.954;2023-02-28T06:19:52;3.10;;;2.80;;
10343;SDS011;5217;43.960;10.954;2023-02-28T06:22:21;3.30;;;3.00;;
10343;SDS011;5217;43.960;10.954;2023-02-28T06:24:49;3.17;;;2.87;;
10343;SDS011;5217;43.960;10.954;2023-02-28T06:27:20;2.93;;;2.63;;
10343;SDS011;5217;43.960;10.954;2023-02-28T06:29:48;2.90;;;2.70;;
10343;SDS011;5217;43.960;10.954;2023-02-28T06:32:20;3.10;;;2.90;;
10343;SDS011;5217;43.960;10.954;2023-02-28T06:34:49;3.83;;;2.80;;
10343;SDS011;5217;43.960;10.954;2023-02-28T06:37:17;3.20;;;2.90;;
10343;SDS011;5217;43.960;10.954;2023-02-28T06:39:46;3.37;;;3.07;;
10343;SDS011;5217;43.960;10.954;2023-02-28T06:42:14;3.07;;;2.87;;
10343;SDS011;5217;43.960;10.954;2023-02-28T06:44:44;3.40;;;3.10;;
10343;SDS011;5217;43.960;10.954;2023-02-28T06:47:12;3.50;;;3.20;;
10343;SDS011;5217;43.960;10.954;2023-02-28T06:49:41;3.03;;;2.83;;
10343;SDS011;5217;43.960;10.954;2023-02-28T06:52:11;3.00;;;2.80;;
10343;SDS011;5217;43.960;10.954;2023-02-28T06:54:39;3.53;;;3.23;;
10343;SDS011;5217;43.960;10.954;2023-02-28T06:57:08;4.57;;;4.17;;
10343;SDS011;5217;43.960;10.954;2023-02-28T06:59:37;4.93;;;4.43;;
10343;SDS011;5217;43.960;10.954;2023-02-28T07:02:07;4.17;;;3.80;;
10343;SDS011;5217;43.960;10.954;2023-02-28T07:04:36;3.40;;;3.10;;
10343;SDS011;5217;43.960;10.954;2023-02-28T07:07:07;3.50;;;3.20;;
10343;SDS011;5217;43.960;10.954;2023-02-28T07:09:35;3.50;;;3.20;;
10343;SDS011;5217;43.960;10.954;2023-02-28T07:12:03;3.00;;;2.80;;
10343;SDS011;5217;43.960;10.954;2023-02-28T07:14:32;3.10;;;2.90;;
10343;SDS011;5217;43.960;10.954;2023-02-28T07:17:01;3.03;;;2.83;;
10343;SDS011;5217;43.960;10.954;2023-02-28T07:19:31;2.90;;;2.70;;
10343;SDS011;5217;43.960;10.954;2023-02-28T07:21:59;4.23;;;3.83;;
10343;SDS011;5217;43.960;10.954;2023-02-28T07:24:29;4.30;;;3.90;;
10343;SDS011;5217;43.960;10.954;2023-02-28T07:26:57;3.43;;;3.13;;
10343;SDS011;5217;43.960;10.954;2023-02-28T07:29:27;3.30;;;3.00;;
10343;SDS011;5217;43.960;10.954;2023-02-28T07:31:55;3.13;;;2.93;;
10343;SDS011;5217;43.960;10.954;2023-02-28T07:34:24;3.17;;;2.87;;
10343;SDS011;5217;43.960;10.954;2023-02-28T07:36:54;2.70;;;2.50;;
10343;SDS011;5217;43.960;10.954;2023-02-28T07:39:23;2.33;;;2.13;;
10343;SDS011;5217;43.960;10.954;2023-02-28T07:41:51;4.00;;;3.70;;
10343;SDS011;5217;43.960;10.954;2023-02-28T07:44:20;4.10;;;3.70;;
10343;SDS011;5217;43.960;10.954;2023-02-28T07:46:48;3.37;;;3.17;;
10343;SDS011;5217;43.960;10.954;2023-02-28T07:49:16;3.10;;;2.90;;
10343;SDS011;5217;43.960;10.954;2023-02-28T07:51:45;7.90;;;7.17;;
10343;SDS011;5217;43.960;10.954;2023-02-28T07:54:14;6.93;;;6.23;;
10343;SDS011;5217;43.960;10.954;2023-02-28T07:56:43;4.37;;;3.97;;
10343;SDS011;5217;43.960;10.954;2023-02-28T07:59:11;3.70;;;3.40;;
10343;SDS011;5217;43.960;10.954;2023-02-28T08:01:39;3.33;;;3.13;;
10343;SDS011;5217;43.960;10.954;2023-02-28T08:04:10;3.73;;;3.43;;
10343;SDS011;5217;43.960;10.954;2023-02-28T08:06:38;3.43;;;3.17;;
10343;SDS011;5217;43.960;10.954;2023-02-28T08:09:07;4.23;;;3.57;;
10343;SDS011;5217;43.960;10.954;2023-02-28T08:11:37;3.33;;;3.03;;
10343;SDS011;5217;43.960;10.954;2023-02-28T08:14:05;3.30;;;3.00;;
10343;SDS011;5217;43.960;10.954;2023-02-28T08:16:34;3.70;;;3.40;;
10343;SDS011;5217;43.960;10.954;2023-02-28T08:19:02;3.80;;;3.50;;
10343;SDS011;5217;43.960;10.954;2023-02-28T08:21:30;3.37;;;3.07;;
10343;SDS011;5217;43.960;10.954;2023-02-28T08:23:59;3.00;;;2.80;;
10343;SDS011;5217;43.960;10.954;2023-02-28T08:26:27;4.03;;;3.70;;
10343;SDS011;5217;43.960;10.954;2023-02-28T08:28:57;3.90;;;3.60;;
10343;SDS011;5217;43.960;10.954;2023-02-28T08:31:27;2.93;;;2.73;;
10343;SDS011;5217;43.960;10.954;2023-02-28T08:33:55;3.00;;;2.80;;
10343;SDS011;5217;43.960;10.954;2023-02-28T08:36:25;8.50;;;6.23;;
10343;SDS011;5217;43.960;10.954;2023-02-28T08:38:55;6.33;;;5.73;;
10343;SDS011;5217;43.960;10.954;2023-02-28T08:41:24;4.60;;;4.20;;
10343;SDS011;5217;43.960;10.954;2023-02-28T08:43:53;2.83;;;2.63;;
10343;SDS011;5217;43.960;10.954;2023-02-28T08:46:23;2.63;;;2.43;;
10343;SDS011;5217;43.960;10.954;2023-02-28T08:48:52;2.60;;;2.40;;
10343;SDS011;5217;43.960;10.954;2023-02-28T08:51:21;2.80;;;2.40;;
10343;SDS011;5217;43.960;10.954;2023-02-28T08:53:53;2.33;;;2.23;;
10343;SDS011;5217;43.960;10.954;2023-02-28T08:56:23;2.60;;;2.40;;
10343;SDS011;5217;43.960;10.954;2023-02-28T08:58:52;2.50;;;2.30;;
10343;SDS011;5217;43.960;10.954;2023-02-28T09:01:24;2.67;;;2.47;;
10343;SDS011;5217;43.960;10.954;2023-02-28T09:03:55;2.77;;;2.57;;
10343;SDS011;5217;43.960;10.954;2023-02-28T09:06:25;2.80;;;2.60;;
10343;SDS011;5217;43.960;10.954;2023-02-28T09:08:56;2.23;;;2.10;;
10343;SDS011;5217;43.960;10.954;2023-02-28T09:11:27;2.67;;;2.47;;
10343;SDS011;5217;43.960;10.954;2023-02-28T09:13:57;3.60;;;3.30;;
10343;SDS011;5217;43.960;10.954;2023-02-28T09:16:27;3.20;;;2.90;;
10343;SDS011;5217;43.960;10.954;2023-02-28T09:18:57;2.73;;;2.53;;
10343;SDS011;5217;43.960;10.954;2023-02-28T09:21:26;2.87;;;2.67;;
10343;SDS011;5217;43.960;10.954;2023-02-28T09:23:55;2.43;;;2.23;;
10343;SDS011;5217;43.960;10.954;2023-02-28T09:26:24;3.00;;;2.80;;
10343;SDS011;5217;43.960;10.954;2023-02-28T09:29:07;2.30;;;2.20;;
10343;SDS011;5217;43.960;10.954;2023-02-28T09:31:37;2.00;;;1.90;;
10343;SDS011;5217;43.960;10.954;2023-02-28T09:34:06;2.03;;;1.90;;
10343;SDS011;5217;43.960;10.954;2023-02-28T09:36:35;2.30;;;2.20;;
10343;SDS011;5217;43.960;10.954;2023-02-28T09:39:11;2.20;;;2.10;;
10343;SDS011;5217;43.960;10.954;2023-02-28T09:41:44;2.13;;;2.03;;
10343;SDS011;5217;43.960;10.954;2023-02-28T09:44:20;2.30;;;2.20;;
10343;SDS011;5217;43.960;10.954;2023-02-28T09:46:57;2.13;;;2.03;;
10343;SDS011;5217;43.960;10.954;2023-02-28T09:49:31;2.37;;;2.20;;
10343;SDS011;5217;43.960;10.954;2023-02-28T09:52:05;2.60;;;2.40;;
10343;SDS011;5217;43.960;10.954;2023-02-28T09:54:36;2.90;;;2.70;;
10343;SDS011;5217;43.960;10.954;2023-02-28T09:57:06;2.80;;;2.60;;
10343;SDS011;5217;43.960;10.954;2023-02-28T09:59:43;3.60;;;3.30;;
10343;SDS011;5217;43.960;10.954;2023-02-28T10:05:17;2.73;;;2.53;;
10343;SDS011;5217;43.960;10.954;2023-02-28T10:07:55;2.57;;;2.20;;
10343;SDS011;5217;43.960;10.954;2023-02-28T10:10:36;2.70;;;2.50;;
10343;SDS011;5217;43.960;10.954;2023-02-28T10:13:12;2.20;;;2.10;;
10343;SDS011;5217;43.960;10.954;2023-02-28T10:15:45;3.40;;;3.10;;
10343;SDS011;5217;43.960;10.954;2023-02-28T10:18:15;2.90;;;2.70;;
10343;SDS011;5217;43.960;10.954;2023-02-28T10:20:52;3.10;;;2.90;;
10343;SDS011;5217;43.960;10.954;2023-02-28T10:23:23;3.90;;;3.60;;
10343;SDS011;5217;43.960;10.954;2023-02-28T10:25:54;2.70;;;2.50;;
10343;SDS011;5217;43.960;10.954;2023-02-28T10:28:27;2.33;;;2.23;;
10343;SDS011;5217;43.960;10.954;2023-02-28T10:30:58;2.50;;;2.40;;
10343;SDS011;5217;43.960;10.954;2023-02-28T10:33:28;2.67;;;2.47;;
10343;SDS011;5217;43.960;10.954;2023-02-28T10:36:00;2.30;;;2.20;;
10343;SDS011;5217;43.960;10.954;2023-02-28T10:38:32;2.70;;;2.50;;
10343;SDS011;5217;43.960;10.954;2023-02-28T10:41:05;2.50;;;2.30;;
10343;SDS011;5217;43.960;10.954;2023-02-28T10:43:34;2.60;;;2.40;;
10343;SDS011;5217;43.960;10.954;2023-02-28T10:46:04;2.50;;;2.30;;
10343;SDS011;5217;43.960;10.954;2023-02-28T10:48:42;2.40;;;2.20;;
10343;SDS011;5217;43.960;10.954;2023-02-28T10:51:15;2.60;;;2.40;;
10343;SDS011;5217;43.960;10.954;2023-02-28T10:53:47;2.47;;;2.27;;
10343;SDS011;5217;43.960;10.954;2023-02-28T10:56:27;2.20;;;2.10;;
10343;SDS011;5217;43.960;10.954;2023-02-28T10:58:58;2.13;;;2.03;;
10343;SDS011;5217;43.960;10.954;2023-02-28T11:01:35;5.73;;;2.27;;
10343;SDS011;5217;43.960;10.954;2023-02-28T11:04:16;11.07;;;2.90;;
10343;SDS011;5217;43.960;10.954;2023-02-28T11:06:48;3.73;;;2.50;;
10343;SDS011;5217;43.960;10.954;2023-02-28T11:09:27;2.43;;;2.23;;
10343;SDS011;5217;43.960;10.954;2023-02-28T11:11:58;2.57;;;2.37;;
10343;SDS011;5217;43.960;10.954;2023-02-28T11:14:27;2.70;;;2.50;;
10343;SDS011;5217;43.960;10.954;2023-02-28T11:16:58;2.63;;;2.43;;
10343;SDS011;5217;43.960;10.954;2023-02-28T11:19:39;2.40;;;2.20;;
10343;SDS011;5217;43.960;10.954;2023-02-28T11:22:17;3.00;;;2.70;;
10343;SDS011;5217;43.960;10.954;2023-02-28T11:24:49;2.70;;;2.50;;
10343;SDS011;5217;43.960;10.954;2023-02-28T11:27:39;2.70;;;2.50;;
10343;SDS011;5217;43.960;10.954;2023-02-28T11:30:28;3.00;;;2.80;;
10343;SDS011;5217;43.960;10.954;2023-02-28T11:32:58;2.80;;;2.60;;
10343;SDS011;5217;43.960;10.954;2023-02-28T11:35:28;2.70;;;2.50;;
10343;SDS011;5217;43.960;10.954;2023-02-28T11:38:02;3.80;;;3.50;;
10343;SDS011;5217;43.960;10.954;2023-02-28T11:40:36;4.00;;;3.60;;
10343;SDS011;5217;43.960;10.954;2023-02-28T11:43:16;3.90;;;3.60;;
10343;SDS011;5217;43.960;10.954;2023-02-28T11:46:05;4.73;;;4.33;;
10343;SDS011;5217;43.960;10.954;2023-02-28T11:48:44;4.80;;;4.40;;
10343;SDS011;5217;43.960;10.954;2023-02-28T11:51:21;5.87;;;5.33;;
10343;SDS011;5217;43.960;10.954;2023-02-28T11:54:01;5.43;;;4.33;;
10343;SDS011;5217;43.960;10.954;2023-02-28T11:56:57;8.90;;;8.10;;
10343;SDS011;5217;43.960;10.954;2023-02-28T11:59:37;9.10;;;8.30;;
10343;SDS011;5217;43.960;10.954;2023-02-28T12:02:20;6.80;;;6.10;;
10343;SDS011;5217;43.960;10.954;2023-02-28T12:04:53;4.80;;;4.40;;
10343;SDS011;5217;43.960;10.954;2023-02-28T12:07:36;4.50;;;4.10;;
10343;SDS011;5217;43.960;10.954;2023-02-28T12:10:14;5.73;;;5.30;;
10343;SDS011;5217;43.960;10.954;2023-02-28T12:12:51;8.10;;;7.30;;
10343;SDS011;5217;43.960;10.954;2023-02-28T12:15:36;8.13;;;7.33;;
10343;SDS011;5217;43.960;10.954;2023-02-28T12:18:20;8.97;;;6.50;;
10343;SDS011;5217;43.960;10.954;2023-02-28T12:21:04;6.80;;;5.33;;
10343;SDS011;5217;43.960;10.954;2023-02-28T12:23:45;5.77;;;5.17;;
10343;SDS011;5217;43.960;10.954;2023-02-28T12:26:28;5.30;;;4.80;;
10343;SDS011;5217;43.960;10.954;2023-02-28T12:29:05;6.20;;;5.60;;
10343;SDS011;5217;43.960;10.954;2023-02-28T12:31:41;6.70;;;6.10;;
10343;SDS011;5217;43.960;10.954;2023-02-28T12:34:14;9.20;;;7.03;;
10343;SDS011;5217;43.960;10.954;2023-02-28T12:36:47;8.13;;;7.27;;
10343;SDS011;5217;43.960;10.954;2023-02-28T12:39:18;7.80;;;7.00;;
10343;SDS011;5217;43.960;10.954;2023-02-28T12:41:53;6.33;;;5.70;;
10343;SDS011;5217;43.960;10.954;2023-02-28T12:44:26;5.53;;;5.03;;
10343;SDS011;5217;43.960;10.954;2023-02-28T12:47:00;3.53;;;3.23;;
10343;SDS011;5217;43.960;10.954;2023-02-28T12:49:33;5.47;;;4.07;;
10343;SDS011;5217;43.960;10.954;2023-02-28T12:52:04;4.50;;;3.90;;
10343;SDS011;5217;43.960;10.954;2023-02-28T12:54:39;4.20;;;3.80;;
10343;SDS011;5217;43.960;10.954;2023-02-28T12:57:14;4.63;;;4.22;;
10343;SDS011;5217;43.960;10.954;2023-02-28T12:59:50;4.43;;;3.83;;
10343;SDS011;5217;43.960;10.954;2023-02-28T13:08:33;5.88;;;5.28;;
10343;SDS011;5217;43.960;10.954;2023-02-28T13:11:23;5.20;;;4.18;;
10343;SDS011;5217;43.960;10.954;2023-02-28T13:14:00;4.30;;;3.90;;
10343;SDS011;5217;43.960;10.954;2023-02-28T13:19:31;5.00;;;4.32;;
10343;SDS011;5217;43.960;10.954;2023-02-28T13:22:01;5.30;;;4.50;;
10343;SDS011;5217;43.960;10.954;2023-02-28T13:24:44;5.28;;;4.72;;
10343;SDS011;5217;43.960;10.954;2023-02-28T13:33:23;5.13;;;4.47;;
10343;SDS011;5217;43.960;10.954;2023-02-28T13:36:06;4.47;;;4.07;;
10343;SDS011;5217;43.960;10.954;2023-02-28T13:38:50;4.90;;;4.40;;
10343;SDS011;5217;43.960;10.954;2023-02-28T13:44:13;4.90;;;4.40;;
10343;SDS011;5217;43.960;10.954;2023-02-28T13:49:46;5.00;;;4.60;;
10343;SDS011;5217;43.960;10.954;2023-02-28T13:52:16;5.70;;;5.20;;
10343;SDS011;5217;43.960;10.954;2023-02-28T13:54:51;6.03;;;5.15;;
10343;SDS011;5217;43.960;10.954;2023-02-28T13:57:41;4.75;;;4.30;;
10343;SDS011;5217;43.960;10.954;2023-02-28T14:00:21;4.88;;;4.38;;
10343;SDS011;5217;43.960;10.954;2023-02-28T14:03:03;7.05;;;4.80;;
10343;SDS011;5217;43.960;10.954;2023-02-28T14:05:39;5.20;;;4.45;;
10343;SDS011;5217;43.960;10.954;2023-02-28T14:08:12;5.70;;;5.15;;
10343;SDS011;5217;43.960;10.954;2023-02-28T14:10:44;27.92;;;17.67;;
10343;SDS011;5217;43.960;10.954;2023-02-28T14:16:11;17.38;;;12.63;;
10343;SDS011;5217;43.960;10.954;2023-02-28T14:18:42;10.13;;;7.32;;
10343;SDS011;5217;43.960;10.954;2023-02-28T14:21:21;6.93;;;5.13;;
10343;SDS011;5217;43.960;10.954;2023-02-28T14:24:16;5.38;;;4.60;;
10343;SDS011;5217;43.960;10.954;2023-02-28T14:29:59;4.45;;;3.83;;
10343;SDS011;5217;43.960;10.954;2023-02-28T14:32:56;5.35;;;4.85;;
10343;SDS011;5217;43.960;10.954;2023-02-28T14:35:39;5.45;;;4.95;;
10343;SDS011;5217;43.960;10.954;2023-02-28T14:38:19;5.63;;;5.07;;
10343;SDS011;5217;43.960;10.954;2023-02-28T14:40:52;5.43;;;4.43;;
10343;SDS011;5217;43.960;10.954;2023-02-28T14:43:24;4.88;;;4.25;;
10343;SDS011;5217;43.960;10.954;2023-02-28T14:45:55;6.22;;;5.15;;
10343;SDS011;5217;43.960;10.954;2023-02-28T14:48:25;4.90;;;4.38;;
10343;SDS011;5217;43.960;10.954;2023-02-28T14:50:55;5.15;;;4.43;;
10343;SDS011;5217;43.960;10.954;2023-02-28T14:53:27;5.32;;;4.32;;
10343;SDS011;5217;43.960;10.954;2023-02-28T14:55:57;4.55;;;4.10;;
10343;SDS011;5217;43.960;10.954;2023-02-28T14:58:27;4.35;;;3.95;;
10343;SDS011;5217;43.960;10.954;2023-02-28T15:00:57;4.90;;;4.50;;
10343;SDS011;5217;43.960;10.954;2023-02-28T15:03:30;3.97;;;3.58;;
10343;SDS011;5217;43.960;10.954;2023-02-28T15:06:00;4.60;;;4.10;;
10343;SDS011;5217;43.960;10.954;2023-02-28T15:08:31;4.95;;;4.22;;
10343;SDS011;5217;43.960;10.954;2023-02-28T15:11:03;5.55;;;4.30;;
10343;SDS011;5217;43.960;10.954;2023-02-28T15:13:35;4.78;;;3.88;;
10343;SDS011;5217;43.960;10.954;2023-02-28T15:16:08;4.47;;;4.07;;
10343;SDS011;5217;43.960;10.954;2023-02-28T15:18:43;4.95;;;4.45;;
10343;SDS011;5217;43.960;10.954;2023-02-28T15:21:16;6.20;;;5.60;;
10343;SDS011;5217;43.960;10.954;2023-02-28T15:23:48;5.32;;;4.80;;
10343;SDS011;5217;43.960;10.954;2023-02-28T15:26:22;5.63;;;4.88;;
10343;SDS011;5217;43.960;10.954;2023-02-28T15:28:57;8.02;;;6.30;;
10343;SDS011;5217;43.960;10.954;2023-02-28T15:31:28;6.43;;;5.75;;
10343;SDS011;5217;43.960;10.954;2023-02-28T15:34:21;6.95;;;6.10;;
10343;SDS011;5217;43.960;10.954;2023-02-28T15:36:58;7.47;;;6.07;;
10343;SDS011;5217;43.960;10.954;2023-02-28T15:39:28;6.67;;;5.97;;
10343;SDS011;5217;43.960;10.954;2023-02-28T15:42:12;6.90;;;5.57;;
10343;SDS011;5217;43.960;10.954;2023-02-28T15:44:45;5.40;;;4.87;;
10343;SDS011;5217;43.960;10.954;2023-02-28T15:47:16;6.30;;;5.07;;
10343;SDS011;5217;43.960;10.954;2023-02-28T15:49:47;5.93;;;5.20;;
10343;SDS011;5217;43.960;10.954;2023-02-28T15:52:18;5.77;;;5.17;;
10343;SDS011;5217;43.960;10.954;2023-02-28T15:54:51;6.77;;;5.70;;
10343;SDS011;5217;43.960;10.954;2023-02-28T15:57:20;6.60;;;6.00;;
10343;SDS011;5217;43.960;10.954;2023-02-28T15:59:52;7.50;;;6.80;;
10343;SDS011;5217;43.960;10.954;2023-02-28T16:02:25;6.50;;;5.90;;